createdAt,value
2019-04-01T00:02:09.515Z,99.00
2019-04-01T00:04:38.084Z,99.00
2019-04-01T00:07:06.597Z,99.20
2019-04-01T00:09:35.060Z,99.30
2019-04-01T00:12:03.586Z,99.20
2019-04-01T00:14:32.087Z,99.30
2019-04-01T00:17:00.551Z,99.40
2019-04-01T00:19:28.988Z,99.50
2019-04-01T00:21:57.510Z,99.40
2019-04-01T00:24:26.053Z,99.50
2019-04-01T00:26:54.500Z,99.60
2019-04-01T00:29:22.939Z,99.60
2019-04-01T00:31:51.446Z,99.60
2019-04-01T00:34:19.958Z,99.70
2019-04-01T00:36:48.397Z,99.80
2019-04-01T00:39:17.431Z,99.90
2019-04-01T00:41:47.508Z,99.80
2019-04-01T00:44:15.947Z,99.90
2019-04-01T00:46:44.428Z,99.90
2019-04-01T00:49:12.870Z,99.90
2019-04-01T00:51:41.310Z,99.90
2019-04-01T00:54:09.784Z,99.90
2019-04-01T00:56:38.219Z,99.90
2019-04-01T00:59:06.676Z,99.90
2019-04-01T01:01:35.139Z,99.90
2019-04-01T01:04:03.576Z,99.90
2019-04-01T01:06:32.020Z,99.90
2019-04-01T01:09:00.497Z,99.90
2019-04-01T01:11:28.933Z,99.90
2019-04-01T01:13:57.375Z,99.90
2019-04-01T01:16:25.838Z,99.90
2019-04-01T01:18:54.279Z,99.90
2019-04-01T01:21:22.860Z,99.90
2019-04-01T01:23:51.323Z,99.90
2019-04-01T01:26:19.771Z,99.90
2019-04-01T01:28:48.217Z,99.90
2019-04-01T01:31:16.763Z,99.90
2019-04-01T01:33:45.200Z,99.90
2019-04-01T01:36:13.636Z,99.90
2019-04-01T01:38:42.132Z,99.90
2019-04-01T01:41:10.563Z,99.90
2019-04-01T01:43:39.008Z,99.90
2019-04-01T01:46:07.467Z,99.90
2019-04-01T01:48:35.903Z,99.90
2019-04-01T01:51:04.415Z,99.90
2019-04-01T01:53:32.884Z,99.90
2019-04-01T01:56:01.321Z,99.90
2019-04-01T01:58:29.757Z,99.90
2019-04-01T02:00:58.473Z,99.90
2019-04-01T02:03:26.918Z,99.90
2019-04-01T02:05:55.370Z,99.90
2019-04-01T02:08:23.820Z,99.90
2019-04-01T02:10:52.260Z,99.90
2019-04-01T02:13:20.693Z,99.90
2019-04-01T02:15:49.164Z,99.90
2019-04-01T02:18:17.668Z,99.90
2019-04-01T02:20:46.106Z,99.90
2019-04-01T02:23:14.578Z,99.90
2019-04-01T02:25:43.020Z,99.90
2019-04-01T02:28:11.456Z,99.90
2019-04-01T02:30:39.917Z,99.90
2019-04-01T02:33:08.358Z,99.90
2019-04-01T02:35:36.815Z,99.90
2019-04-01T02:38:05.467Z,99.90
2019-04-01T02:40:34.528Z,99.90
2019-04-01T02:43:02.959Z,99.90
2019-04-01T02:45:31.429Z,99.90
2019-04-01T02:48:00.016Z,99.90
2019-04-01T02:50:28.459Z,99.90
2019-04-01T02:52:56.957Z,99.90
2019-04-01T02:55:25.389Z,99.90
2019-04-01T02:57:53.823Z,99.90
2019-04-01T03:00:22.372Z,99.90
2019-04-01T03:02:50.816Z,99.90
2019-04-01T03:05:19.331Z,99.90
2019-04-01T03:07:47.802Z,99.90
2019-04-01T03:10:16.383Z,99.90
2019-04-01T03:12:44.816Z,99.90
2019-04-01T03:15:13.295Z,99.90
2019-04-01T03:17:41.731Z,99.90
2019-04-01T03:20:10.319Z,99.90
2019-04-01T03:22:38.846Z,99.90
2019-04-01T03:25:07.539Z,99.90
2019-04-01T03:27:36.046Z,99.90
2019-04-01T03:30:05.324Z,99.90
2019-04-01T03:32:34.313Z,99.90
2019-04-01T03:35:02.959Z,99.90
2019-04-01T03:37:31.424Z,99.90
2019-04-01T03:40:00.010Z,99.90
2019-04-01T03:42:28.495Z,99.90
2019-04-01T03:44:56.976Z,99.90
2019-04-01T03:47:25.452Z,99.90
2019-04-01T03:49:53.949Z,99.90
2019-04-01T03:52:22.497Z,99.90
2019-04-01T03:54:50.978Z,99.90
2019-04-01T03:57:19.479Z,99.90
2019-04-01T03:59:48.197Z,99.90
2019-04-01T04:02:16.639Z,99.90
2019-04-01T04:04:45.147Z,99.90
2019-04-01T04:07:13.615Z,99.90
2019-04-01T04:09:42.125Z,99.90
2019-04-01T04:12:10.569Z,99.90
2019-04-01T04:14:39.049Z,99.90
2019-04-01T04:17:07.480Z,99.90
2019-04-01T04:19:35.926Z,99.90
2019-04-01T04:22:04.393Z,99.90
2019-04-01T04:24:32.850Z,99.90
2019-04-01T04:27:01.300Z,99.90
2019-04-01T04:29:29.773Z,99.90
2019-04-01T04:31:58.300Z,99.90
2019-04-01T04:34:26.729Z,99.90
2019-04-01T04:36:55.203Z,99.90
2019-04-01T04:39:23.632Z,99.90
2019-04-01T04:41:52.069Z,99.90
2019-04-01T04:44:20.607Z,99.90
2019-04-01T04:46:49.041Z,99.90
2019-04-01T04:49:17.493Z,99.90
2019-04-01T04:51:46.029Z,99.90
2019-04-01T04:54:14.537Z,99.90
2019-04-01T04:56:42.985Z,99.90
2019-04-01T04:59:11.513Z,99.90
2019-04-01T05:01:40.026Z,99.90
2019-04-01T05:04:08.472Z,99.90
2019-04-01T05:06:37.024Z,99.90
2019-04-01T05:09:06.710Z,99.90
2019-04-01T05:11:35.151Z,99.90
2019-04-01T05:14:03.695Z,99.90
2019-04-01T05:16:32.132Z,99.90
2019-04-01T05:19:00.579Z,99.90
2019-04-01T05:21:29.776Z,99.90
2019-04-01T05:23:58.284Z,99.90
2019-04-01T05:26:27.871Z,99.90
2019-04-01T05:28:58.167Z,99.90
2019-04-01T05:31:28.592Z,99.90
2019-04-01T05:33:59.728Z,99.90
2019-04-01T05:36:27.650Z,99.90
2019-04-01T05:38:56.829Z,99.90
2019-04-01T05:41:25.357Z,99.90
2019-04-01T05:43:54.155Z,99.90
2019-04-01T05:46:22.738Z,99.90
2019-04-01T05:48:51.620Z,99.90
2019-04-01T05:51:20.084Z,99.90
2019-04-01T05:53:49.263Z,99.90
2019-04-01T05:56:17.775Z,99.90
2019-04-01T05:58:46.312Z,99.90
2019-04-01T06:01:16.463Z,99.90
2019-04-01T06:03:45.038Z,99.90
2019-04-01T06:06:13.635Z,99.90
2019-04-01T06:08:42.150Z,99.90
2019-04-01T06:11:10.724Z,99.90
2019-04-01T06:13:39.264Z,99.90
2019-04-01T06:16:07.845Z,99.90
2019-04-01T06:18:36.369Z,99.90
2019-04-01T06:21:04.978Z,99.90
2019-04-01T06:23:33.552Z,99.90
2019-04-01T06:26:02.141Z,99.90
2019-04-01T06:28:30.684Z,99.90
2019-04-01T06:30:59.211Z,99.90
2019-04-01T06:33:27.922Z,99.90
2019-04-01T06:35:57.212Z,99.90
2019-04-01T06:38:25.737Z,99.90
2019-04-01T06:40:54.340Z,99.90
2019-04-01T06:43:22.948Z,99.90
2019-04-01T06:45:51.390Z,99.90
2019-04-01T06:48:19.969Z,99.90
2019-04-01T06:50:48.448Z,99.90
2019-04-01T06:53:16.956Z,99.90
2019-04-01T06:55:45.544Z,99.90
2019-04-01T06:58:14.084Z,99.90
2019-04-01T07:00:42.667Z,99.90
2019-04-01T07:03:11.710Z,99.90
2019-04-01T07:05:40.228Z,99.90
2019-04-01T07:08:08.732Z,99.90
2019-04-01T07:10:37.338Z,99.90
2019-04-01T07:13:05.875Z,99.90
2019-04-01T07:15:34.320Z,99.90
2019-04-01T07:18:03.006Z,99.90
2019-04-01T07:20:31.607Z,99.90
2019-04-01T07:23:00.056Z,99.60
2019-04-01T07:25:28.640Z,99.50
2019-04-01T07:27:57.176Z,99.30
2019-04-01T07:30:25.683Z,98.90
2019-04-01T07:32:54.267Z,98.60
2019-04-01T07:35:22.885Z,98.00
2019-04-01T07:37:51.585Z,98.10
2019-04-01T07:40:20.023Z,97.60
2019-04-01T07:42:48.560Z,97.10
2019-04-01T07:45:17.148Z,96.90
2019-04-01T07:47:45.731Z,97.30
2019-04-01T07:50:14.265Z,96.80
2019-04-01T07:52:42.843Z,96.30
2019-04-01T07:55:11.601Z,95.60
2019-04-01T07:57:40.218Z,95.20
2019-04-01T08:00:08.938Z,95.00
2019-04-01T08:02:37.364Z,94.70
2019-04-01T08:05:06.370Z,95.00
2019-04-01T08:07:34.939Z,94.30
2019-04-01T08:10:04.823Z,93.90
2019-04-01T08:12:33.532Z,94.00
2019-04-01T08:15:02.141Z,93.60
2019-04-01T08:17:30.657Z,93.20
2019-04-01T08:19:59.191Z,92.80
2019-04-01T08:22:27.691Z,93.20
2019-04-01T08:24:56.197Z,93.10
2019-04-01T08:27:24.832Z,92.80
2019-04-01T08:29:53.283Z,92.30
2019-04-01T08:32:21.787Z,92.40
2019-04-01T08:34:50.486Z,92.60
2019-04-01T08:37:18.991Z,92.50
2019-04-01T08:39:47.509Z,92.60
2019-04-01T08:42:16.307Z,91.70
2019-04-01T08:44:44.827Z,91.00
2019-04-01T08:47:13.283Z,90.60
2019-04-01T08:49:41.814Z,90.70
2019-04-01T08:52:10.328Z,90.40
2019-04-01T08:54:38.832Z,90.20
2019-04-01T08:57:07.361Z,90.30
2019-04-01T08:59:36.064Z,89.30
2019-04-01T09:02:17.058Z,87.60
2019-04-01T09:04:34.910Z,88.50
2019-04-01T09:07:03.422Z,87.80
2019-04-01T09:09:33.083Z,87.60
2019-04-01T09:12:01.700Z,87.20
2019-04-01T09:14:30.481Z,87.60
2019-04-01T09:16:59.662Z,88.20
2019-04-01T09:19:28.119Z,88.00
2019-04-01T09:21:56.556Z,86.20
2019-04-01T09:24:25.068Z,84.80
2019-04-01T09:26:53.540Z,85.40
2019-04-01T09:29:22.000Z,85.70
2019-04-01T09:31:50.511Z,82.40
2019-04-01T09:34:18.984Z,83.40
2019-04-01T09:36:47.455Z,84.70
2019-04-01T09:39:15.893Z,81.80
2019-04-01T09:41:44.369Z,81.20
2019-04-01T09:44:13.008Z,82.20
2019-04-01T09:46:41.525Z,81.90
2019-04-01T09:49:10.074Z,80.70
2019-04-01T09:51:48.325Z,79.80
2019-04-01T09:54:08.688Z,79.70
2019-04-01T09:56:37.233Z,78.60
2019-04-01T09:59:05.679Z,78.60
2019-04-01T10:01:37.050Z,79.20
2019-04-01T10:04:05.586Z,79.50
2019-04-01T10:06:34.052Z,77.70
2019-04-01T10:09:02.576Z,77.10
2019-04-01T10:11:31.038Z,76.10
2019-04-01T10:13:59.476Z,75.60
2019-04-01T10:16:27.940Z,74.30
2019-04-01T10:18:56.411Z,74.40
2019-04-01T10:21:24.856Z,74.10
2019-04-01T10:23:53.359Z,73.60
2019-04-01T10:26:21.823Z,73.40
2019-04-01T10:28:50.533Z,72.50
2019-04-01T10:31:18.973Z,74.20
2019-04-01T10:33:47.448Z,74.80
2019-04-01T10:36:15.898Z,75.40
2019-04-01T10:38:46.711Z,72.90
2019-04-01T10:41:14.612Z,73.00
2019-04-01T10:43:43.146Z,69.00
2019-04-01T10:46:12.417Z,72.00
2019-04-01T10:48:41.088Z,69.50
2019-04-01T10:51:09.743Z,68.50
2019-04-01T10:53:38.264Z,66.90
2019-04-01T10:56:06.822Z,64.20
2019-04-01T10:58:35.441Z,62.30
2019-04-01T11:01:04.142Z,62.50
2019-04-01T11:03:32.868Z,61.10
2019-04-01T11:06:01.390Z,61.60
2019-04-01T11:08:29.939Z,58.70
2019-04-01T11:10:58.452Z,59.50
2019-04-01T11:13:27.078Z,59.10
2019-04-01T11:15:55.604Z,59.30
2019-04-01T11:18:24.098Z,57.20
2019-04-01T11:20:52.536Z,56.60
2019-04-01T11:23:20.983Z,58.70
2019-04-01T11:25:49.469Z,58.90
2019-04-01T11:28:17.988Z,58.10
2019-04-01T11:30:46.528Z,60.10
2019-04-01T11:33:15.077Z,58.10
2019-04-01T11:35:43.513Z,57.80
2019-04-01T11:38:12.050Z,56.10
2019-04-01T11:40:40.573Z,58.30
2019-04-01T11:43:09.184Z,59.80
2019-04-01T11:45:37.741Z,57.30
2019-04-01T11:48:06.308Z,54.90
2019-04-01T11:50:34.807Z,56.60
2019-04-01T11:53:03.331Z,56.80
2019-04-01T11:55:31.795Z,57.30
2019-04-01T11:58:00.239Z,56.10
2019-04-01T12:00:28.687Z,55.70
2019-04-01T12:02:57.167Z,56.00
2019-04-01T12:05:25.680Z,58.00
2019-04-01T12:07:54.194Z,57.90
2019-04-01T12:10:22.741Z,57.00
2019-04-01T12:12:51.352Z,54.60
2019-04-01T12:15:19.861Z,56.10
2019-04-01T12:17:48.329Z,54.90
2019-04-01T12:20:16.772Z,56.70
2019-04-01T12:22:46.033Z,56.90
2019-04-01T12:25:14.795Z,56.60
2019-04-01T12:27:43.259Z,55.40
2019-04-01T12:30:11.856Z,54.80
2019-04-01T12:32:40.391Z,54.30
2019-04-01T12:35:08.971Z,54.60
2019-04-01T12:37:37.411Z,52.60
2019-04-01T12:40:07.008Z,54.00
2019-04-01T12:42:35.495Z,55.10
2019-04-01T12:45:06.249Z,54.50
2019-04-01T12:47:35.647Z,56.50
2019-04-01T12:50:05.838Z,57.00
2019-04-01T12:52:34.343Z,56.10
2019-04-01T12:55:02.943Z,56.40
2019-04-01T12:57:33.894Z,55.40
2019-04-01T13:00:02.393Z,57.30
2019-04-01T13:02:30.949Z,56.20
2019-04-01T13:04:59.459Z,56.30
2019-04-01T13:07:27.909Z,55.80
2019-04-01T13:09:56.408Z,54.70
2019-04-01T13:12:27.290Z,53.80
2019-04-01T13:14:55.690Z,53.30
2019-04-01T13:17:24.365Z,53.60
2019-04-01T13:19:54.367Z,55.60
2019-04-01T13:22:22.813Z,54.80
2019-04-01T13:28:19.855Z,54.40
2019-04-01T13:30:48.306Z,53.00
2019-04-01T13:33:17.161Z,54.20
2019-04-01T13:35:45.986Z,54.20
2019-04-01T13:38:15.253Z,54.90
2019-04-01T13:40:44.437Z,54.00
2019-04-01T13:43:16.735Z,54.60
2019-04-01T13:45:43.409Z,54.00
2019-04-01T13:48:12.021Z,53.90
2019-04-01T13:50:40.494Z,53.00
2019-04-01T13:53:08.999Z,54.60
2019-04-01T13:55:38.268Z,56.00
2019-04-01T13:58:07.060Z,55.70
2019-04-01T14:00:35.650Z,56.90
2019-04-01T14:03:04.115Z,57.30
2019-04-01T14:05:32.592Z,58.10
2019-04-01T14:08:01.053Z,58.30
2019-04-01T14:10:29.512Z,58.40
2019-04-01T14:12:57.990Z,58.70
2019-04-01T14:15:26.495Z,59.50
2019-04-01T14:17:54.946Z,59.00
2019-04-01T14:20:23.485Z,59.90
2019-04-01T14:22:53.553Z,59.60
2019-04-01T14:25:22.262Z,60.30
2019-04-01T14:27:50.748Z,59.50
2019-04-01T14:30:19.396Z,60.00
2019-04-01T14:32:47.846Z,59.20
2019-04-01T14:35:16.317Z,60.40
2019-04-01T14:37:44.825Z,59.90
2019-04-01T14:40:13.507Z,60.70
2019-04-01T14:42:42.000Z,60.40
2019-04-01T14:45:10.646Z,59.70
2019-04-01T14:47:55.829Z,58.80
2019-04-01T14:50:09.416Z,56.40
2019-04-01T14:52:37.864Z,54.30
2019-04-01T14:55:06.637Z,53.50
2019-04-01T14:57:35.182Z,52.40
2019-04-01T15:00:08.795Z,52.20
2019-04-01T15:02:37.245Z,53.30
2019-04-01T15:05:06.376Z,52.20
2019-04-01T15:07:34.903Z,51.00
2019-04-01T15:10:04.215Z,51.50
2019-04-01T15:12:32.698Z,50.90
2019-04-01T15:15:01.148Z,51.80
2019-04-01T15:17:29.605Z,50.10
2019-04-01T15:19:58.100Z,48.40
2019-04-01T15:22:27.239Z,48.50
2019-04-01T15:24:55.749Z,47.40
2019-04-01T15:27:24.220Z,48.40
2019-04-01T15:29:52.656Z,47.10
2019-04-01T15:32:21.093Z,47.50
2019-04-01T15:34:49.580Z,48.20
2019-04-01T15:37:18.037Z,48.50
2019-04-01T15:39:47.419Z,46.50
2019-04-01T15:42:16.104Z,48.10
2019-04-01T15:44:44.548Z,48.10
2019-04-01T15:47:13.059Z,50.70
2019-04-01T15:49:41.529Z,52.40
2019-04-01T15:52:09.972Z,52.00
2019-04-01T15:54:39.129Z,53.70
2019-04-01T15:57:07.611Z,52.90
2019-04-01T15:59:36.055Z,52.10
2019-04-01T16:02:04.576Z,54.30
2019-04-01T16:04:33.057Z,55.00
2019-04-01T16:07:01.511Z,56.90
2019-04-01T16:09:30.024Z,56.60
2019-04-01T16:11:58.530Z,56.70
2019-04-01T16:14:26.989Z,56.60
2019-04-01T16:16:55.432Z,58.20
2019-04-01T16:19:23.932Z,59.10
2019-04-01T16:21:53.076Z,59.40
2019-04-01T16:24:21.580Z,59.00
2019-04-01T16:26:50.062Z,59.10
2019-04-01T16:29:18.514Z,59.50
2019-04-01T16:31:46.967Z,60.40
2019-04-01T16:34:15.456Z,59.80
2019-04-01T16:36:43.903Z,58.90
2019-04-01T16:39:12.425Z,58.30
2019-04-01T16:41:40.921Z,59.50
2019-04-01T16:44:09.384Z,59.20
2019-04-01T16:46:38.061Z,59.80
2019-04-01T16:49:07.561Z,60.30
2019-04-01T16:51:36.295Z,61.70
2019-04-01T16:54:04.954Z,62.70
2019-04-01T16:56:33.432Z,63.20
2019-04-01T16:59:01.876Z,64.50
2019-04-01T17:01:30.313Z,64.70
2019-04-01T17:03:58.791Z,65.40
2019-04-01T17:06:27.305Z,66.00
2019-04-01T17:08:55.819Z,66.80
2019-04-01T17:11:24.374Z,66.80
2019-04-01T17:13:52.880Z,67.00
2019-04-01T17:16:21.326Z,67.80
2019-04-01T17:18:49.802Z,68.40
2019-04-01T17:21:18.241Z,69.00
2019-04-01T17:23:46.711Z,69.80
2019-04-01T17:26:15.310Z,70.40
2019-04-01T17:28:46.826Z,71.10
2019-04-01T17:31:15.346Z,71.40
2019-04-01T17:33:48.058Z,72.20
2019-04-01T17:36:16.633Z,73.70
2019-04-01T17:38:47.961Z,73.90
2019-04-01T17:41:15.392Z,74.30
2019-04-01T17:43:45.193Z,74.60
2019-04-01T17:46:13.816Z,75.30
2019-04-01T17:48:42.326Z,75.40
2019-04-01T17:51:10.768Z,76.00
2019-04-01T17:53:39.211Z,76.90
2019-04-01T17:56:07.822Z,77.50
2019-04-01T17:58:36.273Z,78.00
2019-04-01T18:01:04.956Z,78.40
2019-04-01T18:03:34.250Z,78.40
2019-04-01T18:06:03.084Z,79.00
2019-04-01T18:08:31.532Z,79.70
2019-04-01T18:11:00.006Z,80.20
2019-04-01T18:13:28.444Z,80.90
2019-04-01T18:15:57.568Z,81.40
2019-04-01T18:18:27.491Z,81.90
2019-04-01T18:20:56.182Z,82.60
2019-04-01T18:23:26.228Z,83.40
2019-04-01T18:25:54.973Z,84.10
2019-04-01T18:28:23.426Z,84.80
2019-04-01T18:30:51.881Z,85.50
2019-04-01T18:36:48.708Z,87.20
2019-04-01T18:39:17.170Z,88.00
2019-04-01T18:41:45.695Z,88.30
2019-04-01T18:44:14.136Z,88.90
2019-04-01T18:46:42.609Z,89.40
2019-04-01T18:49:11.069Z,89.90
2019-04-01T18:51:40.348Z,90.00
2019-04-01T18:54:09.121Z,90.10
2019-04-01T18:56:37.561Z,90.40
2019-04-01T18:59:08.229Z,90.40
2019-04-01T19:01:36.718Z,90.40
2019-04-01T19:04:05.228Z,90.50
2019-04-01T19:06:33.678Z,90.50
2019-04-01T19:09:09.122Z,90.60
2019-04-01T19:11:32.397Z,90.80
2019-04-01T19:14:00.998Z,90.80
2019-04-01T19:16:29.516Z,90.80
2019-04-01T19:18:58.021Z,91.00
2019-04-01T19:21:26.561Z,91.20
2019-04-01T19:23:55.164Z,91.20
2019-04-01T19:26:24.328Z,91.20
2019-04-01T19:28:53.024Z,91.30
2019-04-01T19:31:21.496Z,91.40
2019-04-01T19:33:49.960Z,91.60
2019-04-01T19:36:18.444Z,91.80
2019-04-01T19:38:47.512Z,92.20
2019-04-01T19:41:23.225Z,91.90
2019-04-01T19:43:51.779Z,91.90
2019-04-01T19:46:20.283Z,92.00
2019-04-01T19:48:50.360Z,92.00
2019-04-01T19:51:18.911Z,92.20
2019-04-01T19:53:47.364Z,92.30
2019-04-01T19:56:17.535Z,92.60
2019-04-01T19:58:46.007Z,92.60
2019-04-01T20:01:14.512Z,92.80
2019-04-01T20:03:42.955Z,92.90
2019-04-01T20:06:14.508Z,93.00
2019-04-01T20:08:42.940Z,93.00
2019-04-01T20:11:11.402Z,93.20
2019-04-01T20:13:42.645Z,93.10
2019-04-01T20:16:12.685Z,93.10
2019-04-01T20:18:41.500Z,93.40
2019-04-01T20:21:09.972Z,93.50
2019-04-01T20:23:38.427Z,93.50
2019-04-01T20:26:06.942Z,93.70
2019-04-01T20:28:35.402Z,93.60
2019-04-01T20:31:03.914Z,94.00
2019-04-01T20:33:32.375Z,93.80
2019-04-01T20:36:00.905Z,93.80
2019-04-01T20:38:29.349Z,94.00
2019-04-01T20:40:57.824Z,93.90
2019-04-01T20:43:26.295Z,93.90
2019-04-01T20:45:54.873Z,94.10
2019-04-01T20:48:30.679Z,94.30
2019-04-01T20:50:59.265Z,94.50
2019-04-01T20:53:27.840Z,94.90
2019-04-01T20:55:56.323Z,94.70
2019-04-01T20:58:24.784Z,94.70
2019-04-01T21:00:53.232Z,94.70
2019-04-01T21:03:21.698Z,95.10
2019-04-01T21:05:50.136Z,94.80
2019-04-01T21:08:18.574Z,95.10
2019-04-01T21:10:47.060Z,95.10
2019-04-01T21:13:15.492Z,95.10
2019-04-01T21:15:43.940Z,95.10
2019-04-01T21:18:12.415Z,95.10
2019-04-01T21:20:41.347Z,95.00
2019-04-01T21:23:10.746Z,95.00
2019-04-01T21:25:39.281Z,94.90
2019-04-01T21:28:07.721Z,95.00
2019-04-01T21:30:36.223Z,95.20
2019-04-01T21:33:04.868Z,95.30
2019-04-01T21:35:33.666Z,95.30
2019-04-01T21:38:02.095Z,95.30
2019-04-01T21:40:30.572Z,95.50
2019-04-01T21:42:59.088Z,95.40
2019-04-01T21:45:27.528Z,95.50
2019-04-01T21:47:56.139Z,95.50
2019-04-01T21:50:24.722Z,95.60
2019-04-01T21:52:53.231Z,95.60
2019-04-01T21:55:21.782Z,95.60
2019-04-01T21:57:51.325Z,95.80
2019-04-01T22:00:38.386Z,95.90
2019-04-01T22:03:07.088Z,95.90
2019-04-01T22:05:35.832Z,95.80
2019-04-01T22:08:04.375Z,95.90
2019-04-01T22:10:32.836Z,96.20
2019-04-01T22:13:01.344Z,96.20
2019-04-01T22:15:29.895Z,95.90
2019-04-01T22:17:58.340Z,95.90
2019-04-01T22:20:26.777Z,96.10
2019-04-01T22:22:55.237Z,96.00
2019-04-01T22:25:23.677Z,96.20
2019-04-01T22:27:52.393Z,96.40
2019-04-01T22:30:21.835Z,96.80
2019-04-01T22:32:50.282Z,96.70
2019-04-01T22:35:18.996Z,96.50
2019-04-01T22:37:47.548Z,97.10
2019-04-01T22:40:16.133Z,97.40
2019-04-01T22:42:44.588Z,97.30
2019-04-01T22:45:13.281Z,97.00
2019-04-01T22:47:41.724Z,96.90
2019-04-01T22:50:10.730Z,96.90
2019-04-01T22:52:42.020Z,97.00
2019-04-01T22:55:09.495Z,97.20
2019-04-01T22:57:37.952Z,97.40
2019-04-01T23:00:06.656Z,97.20
2019-04-01T23:02:35.178Z,96.90
2019-04-01T23:05:04.400Z,97.10
2019-04-01T23:07:33.126Z,97.10
2019-04-01T23:10:01.692Z,97.00
2019-04-01T23:12:30.209Z,97.10
2019-04-01T23:14:58.680Z,96.80
2019-04-01T23:17:27.128Z,97.00
2019-04-01T23:19:55.566Z,97.00
2019-04-01T23:22:24.115Z,96.90
2019-04-01T23:24:52.548Z,96.80
2019-04-01T23:27:20.994Z,97.00
2019-04-01T23:29:51.153Z,96.90
2019-04-01T23:32:19.679Z,97.10
2019-04-01T23:34:48.128Z,97.00
2019-04-01T23:37:16.601Z,97.10
2019-04-01T23:39:45.044Z,97.00
2019-04-01T23:42:13.490Z,96.90
2019-04-01T23:44:41.969Z,96.80
2019-04-01T23:47:10.479Z,96.70
2019-04-01T23:49:40.270Z,96.70
2019-04-01T23:52:08.969Z,97.20
2019-04-01T23:54:37.410Z,97.00
2019-04-01T23:57:05.855Z,96.80
2019-04-01T23:59:34.319Z,96.80
